Time;durP1;ratioP1;P1;durP2;ratioP2;P2;SDS_P1;SDS_P2;PMS_P1;PMS_P2;Temp;Humidity;BMP_temperature;BMP_pressure;BME280_temperature;BME280_humidity;BME280_pressure;Samples;Min_cycle;Max_cycle;Signal;HPM_P1;HPM_P2
2022/05/21 00:00:22;;;;;;;;;;;10.90;99.90;;;;;;5095883;28;19923;-77
2022/05/21 00:02:48;;;;;;;;;;;10.90;99.90;;;;;;5111686;28;19920;-77
2022/05/21 00:05:14;;;;;;;;;;;10.90;99.90;;;;;;5113429;28;19930;-77
2022/05/21 00:07:41;;;;;;;;;;;10.90;99.90;;;;;;5124629;27;19923;-77
2022/05/21 00:10:07;;;;;;;;;;;10.80;99.90;;;;;;5122279;27;19998;-77
2022/05/21 00:12:33;;;;;;;;;;;10.80;99.90;;;;;;5153453;27;19931;-77
2022/05/21 00:14:59;;;;;;;;;;;10.90;99.90;;;;;;5153798;27;19972;-77
2022/05/21 00:17:25;;;;;;;;;;;10.80;99.90;;;;;;5135892;27;19926;-77
2022/05/21 00:19:51;;;;;;;;;;;10.80;99.90;;;;;;5151817;27;19919;-77
2022/05/21 00:22:16;;;;;;;;;;;10.80;99.90;;;;;;5153928;27;20363;-77
2022/05/21 00:24:42;;;;;;;;;;;10.80;99.90;;;;;;5153362;27;19942;-77
2022/05/21 00:27:07;;;;;;;;;;;10.90;99.90;;;;;;5153830;27;19981;-77
2022/05/21 00:29:33;;;;;;;;;;;10.80;99.90;;;;;;5134729;27;19927;-77
2022/05/21 00:31:59;;;;;;;;;;;10.80;99.90;;;;;;5135599;27;19958;-77
2022/05/21 00:34:24;;;;;;;;;;;10.80;99.90;;;;;;5151702;27;19990;-77
2022/05/21 00:36:50;;;;;;;;;;;10.80;99.90;;;;;;5134887;27;19923;-77
2022/05/21 00:39:16;;;;;;;;;;;10.80;99.90;;;;;;5133141;27;19919;-77
2022/05/21 00:41:42;;;;;;;;;;;10.70;99.90;;;;;;5149716;27;20375;-77
2022/05/21 00:44:08;;;;;;;;;;;10.80;99.90;;;;;;5132500;27;19988;-77
2022/05/21 00:46:35;;;;;;;;;;;10.80;99.90;;;;;;5132614;27;19923;-77
2022/05/21 00:49:04;;;;;;;;;;;10.70;99.90;;;;;;5130938;27;19927;-77
2022/05/21 00:51:32;;;;;;;;;;;10.70;99.90;;;;;;5114582;27;19920;-77
2022/05/21 00:53:59;;;;;;;;;;;10.70;99.90;;;;;;5131950;27;20015;-77
2022/05/21 00:56:25;;;;;;;;;;;10.70;99.90;;;;;;5132320;27;19931;-77
2022/05/21 01:01:37;;;;;;;;;;;10.80;99.90;;;;;;5143119;27;19923;-77
2022/05/21 01:04:03;;;;;;;;;;;10.70;99.90;;;;;;5151219;27;19919;-77
2022/05/21 01:06:29;;;;;;;;;;;10.70;99.90;;;;;;5152373;27;20368;-77
2022/05/21 01:08:54;;;;;;;;;;;10.70;99.90;;;;;;5152616;27;19992;-77
2022/05/21 01:11:20;;;;;;;;;;;10.60;99.90;;;;;;5133689;27;19975;-77
2022/05/21 01:13:48;;;;;;;;;;;10.60;99.90;;;;;;5131102;27;20441;-77
2022/05/21 01:16:14;;;;;;;;;;;10.70;99.90;;;;;;5113723;27;19975;-77
2022/05/21 01:18:40;;;;;;;;;;;10.60;99.90;;;;;;5111506;28;19923;-77
2022/05/21 01:21:06;;;;;;;;;;;10.60;99.90;;;;;;5131851;27;19930;-77
2022/05/21 01:23:33;;;;;;;;;;;10.60;99.90;;;;;;5139414;27;19982;-77
2022/05/21 01:25:59;;;;;;;;;;;10.50;99.90;;;;;;5146654;27;20014;-77
2022/05/21 01:28:26;;;;;;;;;;;10.60;99.90;;;;;;5152707;27;19927;-77
2022/05/21 01:30:53;;;;;;;;;;;10.60;99.90;;;;;;5136335;27;19970;-77
2022/05/21 01:33:21;;;;;;;;;;;10.60;99.90;;;;;;5130135;27;19924;-77
2022/05/21 01:35:47;;;;;;;;;;;10.70;99.90;;;;;;5113370;27;19919;-77
2022/05/21 01:38:14;;;;;;;;;;;10.70;99.90;;;;;;5119894;27;19926;-77
2022/05/21 01:40:39;;;;;;;;;;;10.80;99.90;;;;;;5115049;27;19923;-77
2022/05/21 01:45:52;;;;;;;;;;;10.90;99.90;;;;;;5147056;27;20321;-77
2022/05/21 01:48:22;;;;;;;;;;;11.10;99.90;;;;;;5151022;27;19980;-78
2022/05/21 01:50:48;;;;;;;;;;;11.10;99.90;;;;;;5151991;27;19923;-77
2022/05/21 01:53:15;;;;;;;;;;;11.20;99.90;;;;;;5152161;27;19930;-78
2022/05/21 01:55:40;;;;;;;;;;;11.20;99.90;;;;;;5130379;27;20304;-78
2022/05/21 01:58:06;;;;;;;;;;;10.60;99.90;;;;;;5108880;28;19924;-77
2022/05/21 02:00:32;;;;;;;;;;;11.30;99.90;;;;;;5130693;27;19930;-77
2022/05/21 02:02:57;;;;;;;;;;;11.30;99.90;;;;;;5090894;28;19930;-77
2022/05/21 02:05:23;;;;;;;;;;;11.30;99.90;;;;;;5111166;28;19926;-78
2022/05/21 02:07:48;;;;;;;;;;;11.40;99.90;;;;;;5110117;28;19974;-77
2022/05/21 02:10:14;;;;;;;;;;;11.40;99.90;;;;;;5144884;27;19924;-77
2022/05/21 02:12:39;;;;;;;;;;;11.40;99.90;;;;;;5112962;28;19941;-77
2022/05/21 02:15:05;;;;;;;;;;;11.40;99.90;;;;;;5112290;28;20352;-77
2022/05/21 02:17:31;;;;;;;;;;;11.40;99.90;;;;;;5113471;28;19956;-77
2022/05/21 02:19:56;;;;;;;;;;;11.40;99.90;;;;;;5129343;28;20352;-77
2022/05/21 02:22:22;;;;;;;;;;;11.40;99.90;;;;;;5131022;28;19942;-77
2022/05/21 02:24:47;;;;;;;;;;;11.40;99.90;;;;;;5130902;28;19923;-77
2022/05/21 02:27:14;;;;;;;;;;;11.50;99.90;;;;;;5128624;27;20464;-77
2022/05/21 02:29:39;;;;;;;;;;;11.50;99.90;;;;;;5131080;28;19919;-77
2022/05/21 02:32:05;;;;;;;;;;;11.50;99.90;;;;;;5115719;27;20386;-77
2022/05/21 02:34:31;;;;;;;;;;;11.50;99.90;;;;;;5111818;28;20365;-77
2022/05/21 02:39:41;;;;;;;;;;;11.50;99.90;;;;;;5116901;27;19923;-77
2022/05/21 02:42:43;;;;;;;;;;;11.50;99.90;;;;;;5134738;27;19923;-77
2022/05/21 02:44:53;;;;;;;;;;;11.60;99.90;;;;;;5134003;27;19927;-77
2022/05/21 02:47:18;;;;;;;;;;;11.60;99.90;;;;;;5112908;28;20018;-78
2022/05/21 02:49:44;;;;;;;;;;;11.60;99.90;;;;;;5117573;27;19926;-78
2022/05/21 02:52:09;;;;;;;;;;;11.60;99.90;;;;;;5146531;27;20367;-78
2022/05/21 02:54:35;;;;;;;;;;;11.60;99.90;;;;;;5137283;27;19919;-78
2022/05/21 02:57:00;;;;;;;;;;;11.70;99.90;;;;;;5115606;27;19976;-78
2022/05/21 02:59:28;;;;;;;;;;;11.70;99.90;;;;;;5079225;28;20049;-78
2022/05/21 03:01:54;;;;;;;;;;;11.70;99.90;;;;;;5095809;28;19927;-78
2022/05/21 03:04:20;;;;;;;;;;;11.80;99.90;;;;;;5094124;28;19919;-77
2022/05/21 03:06:45;;;;;;;;;;;11.80;99.90;;;;;;5095989;28;19927;-78
2022/05/21 03:11:55;;;;;;;;;;;11.80;99.90;;;;;;5113439;28;20661;-77
2022/05/21 03:14:20;;;;;;;;;;;11.80;99.90;;;;;;5095598;28;19971;-78
2022/05/21 03:16:46;;;;;;;;;;;11.80;99.90;;;;;;5116724;27;20398;-78
2022/05/21 03:19:12;;;;;;;;;;;11.80;99.90;;;;;;5132476;27;19927;-78
2022/05/21 03:21:37;;;;;;;;;;;11.80;99.90;;;;;;5121176;27;19930;-77
2022/05/21 03:24:03;;;;;;;;;;;11.80;99.90;;;;;;5154564;27;20383;-78
2022/05/21 03:26:29;;;;;;;;;;;11.80;99.90;;;;;;5136326;27;19923;-78
2022/05/21 03:28:55;;;;;;;;;;;11.80;99.90;;;;;;5154213;27;20007;-78
2022/05/21 03:31:20;;;;;;;;;;;11.90;99.90;;;;;;5154176;27;19974;-78
2022/05/21 03:33:46;;;;;;;;;;;11.90;99.90;;;;;;5116854;27;20266;-78
2022/05/21 03:36:12;;;;;;;;;;;11.90;99.90;;;;;;5128620;27;20022;-78
2022/05/21 03:38:37;;;;;;;;;;;11.90;99.90;;;;;;5154925;27;20383;-78
2022/05/21 03:41:03;;;;;;;;;;;12.00;99.90;;;;;;5131225;27;19927;-77
2022/05/21 03:43:28;;;;;;;;;;;12.00;99.90;;;;;;5110712;28;20330;-78
2022/05/21 03:45:55;;;;;;;;;;;12.00;99.90;;;;;;5098786;27;19923;-78
2022/05/21 03:48:21;;;;;;;;;;;12.00;99.90;;;;;;5108481;27;19928;-78
2022/05/21 03:50:46;;;;;;;;;;;11.90;99.90;;;;;;5113383;28;19977;-78
2022/05/21 03:53:14;;;;;;;;;;;12.00;99.90;;;;;;5112828;27;20758;-78
2022/05/21 03:55:40;;;;;;;;;;;12.00;99.90;;;;;;5154353;27;20390;-77
2022/05/21 03:58:06;;;;;;;;;;;12.00;99.90;;;;;;5153387;27;19926;-77
2022/05/21 04:00:32;;;;;;;;;;;12.00;99.90;;;;;;5119091;27;19919;-77
2022/05/21 04:02:59;;;;;;;;;;;12.00;99.90;;;;;;5111889;27;19946;-77
2022/05/21 04:05:25;;;;;;;;;;;12.00;99.90;;;;;;5107924;27;19923;-77
2022/05/21 04:07:50;;;;;;;;;;;12.00;99.90;;;;;;5133426;27;19931;-78
2022/05/21 04:10:17;;;;;;;;;;;12.10;99.90;;;;;;5111524;28;20326;-78
2022/05/21 04:12:43;;;;;;;;;;;12.00;99.90;;;;;;5094659;28;19920;-78
2022/05/21 04:15:09;;;;;;;;;;;12.00;99.90;;;;;;5112197;28;19924;-78
2022/05/21 04:17:35;;;;;;;;;;;12.00;99.90;;;;;;5078042;28;19923;-78
2022/05/21 04:20:02;;;;;;;;;;;12.00;99.90;;;;;;5092428;28;19976;-77
2022/05/21 04:22:27;;;;;;;;;;;12.00;99.90;;;;;;5121293;27;19923;-78
2022/05/21 04:24:53;;;;;;;;;;;12.10;99.90;;;;;;5132904;27;20283;-78
2022/05/21 04:27:19;;;;;;;;;;;12.10;99.90;;;;;;5114170;27;19923;-78
2022/05/21 04:29:45;;;;;;;;;;;12.10;99.90;;;;;;5114385;27;19925;-78
2022/05/21 04:32:10;;;;;;;;;;;12.10;99.90;;;;;;5114502;27;20302;-78
2022/05/21 04:34:36;;;;;;;;;;;12.10;99.90;;;;;;5145233;27;19918;-78
2022/05/21 04:37:01;;;;;;;;;;;12.20;99.90;;;;;;5153162;27;19919;-78
2022/05/21 04:39:27;;;;;;;;;;;12.20;99.90;;;;;;5135177;27;19919;-78
2022/05/21 04:41:53;;;;;;;;;;;12.20;99.90;;;;;;5153515;27;20006;-78
2022/05/21 04:44:18;;;;;;;;;;;12.20;99.90;;;;;;5134100;27;19922;-78
2022/05/21 04:46:44;;;;;;;;;;;12.20;99.90;;;;;;5135071;27;19929;-78
2022/05/21 04:49:09;;;;;;;;;;;12.30;99.90;;;;;;5132749;27;19922;-78
2022/05/21 04:51:36;;;;;;;;;;;12.30;99.90;;;;;;5147497;27;19970;-78
2022/05/21 04:54:03;;;;;;;;;;;12.30;99.90;;;;;;5152436;27;19923;-79
2022/05/21 04:56:29;;;;;;;;;;;12.30;99.90;;;;;;5152797;27;19927;-78
2022/05/21 04:58:58;;;;;;;;;;;12.40;99.90;;;;;;5114529;27;19973;-78
2022/05/21 05:01:24;;;;;;;;;;;12.40;99.90;;;;;;5113762;27;19924;-78
2022/05/21 05:03:49;;;;;;;;;;;12.40;99.90;;;;;;5150980;27;20355;-78
2022/05/21 05:06:15;;;;;;;;;;;12.40;99.90;;;;;;5147092;27;20517;-78
2022/05/21 05:08:41;;;;;;;;;;;12.50;99.90;;;;;;5132325;27;20341;-78
2022/05/21 05:11:06;;;;;;;;;;;12.40;99.90;;;;;;5131649;27;20376;-78
2022/05/21 05:13:32;;;;;;;;;;;12.50;99.90;;;;;;5113082;27;19931;-78
2022/05/21 05:15:57;;;;;;;;;;;12.50;99.90;;;;;;5131445;27;19922;-78
2022/05/21 05:18:23;;;;;;;;;;;12.50;99.90;;;;;;5132403;27;19923;-78
2022/05/21 05:20:49;;;;;;;;;;;12.60;99.90;;;;;;5134579;27;19919;-78
2022/05/21 05:23:15;;;;;;;;;;;12.70;99.90;;;;;;5114309;27;20387;-78
2022/05/21 05:25:41;;;;;;;;;;;12.70;99.90;;;;;;5131725;27;19930;-78
2022/05/21 05:28:18;;;;;;;;;;;12.80;99.90;;;;;;5112946;27;19920;-78
2022/05/21 05:30:44;;;;;;;;;;;12.80;99.90;;;;;;5114119;27;19970;-78
2022/05/21 05:33:10;;;;;;;;;;;12.90;99.90;;;;;;5118168;27;20398;-78
2022/05/21 05:35:36;;;;;;;;;;;12.90;99.90;;;;;;5134465;27;19923;-78
2022/05/21 05:38:06;;;;;;;;;;;12.90;99.90;;;;;;5096966;27;19923;-78
2022/05/21 05:40:33;;;;;;;;;;;13.00;99.90;;;;;;5110049;28;20007;-78
2022/05/21 05:43:00;;;;;;;;;;;13.00;99.90;;;;;;5111736;28;20144;-78
2022/05/21 05:45:25;;;;;;;;;;;13.00;99.90;;;;;;5110795;28;20399;-78
2022/05/21 05:47:51;;;;;;;;;;;13.10;99.90;;;;;;5108491;28;19924;-78
2022/05/21 05:50:16;;;;;;;;;;;13.20;99.90;;;;;;5109625;28;20405;-78
2022/05/21 05:52:42;;;;;;;;;;;13.20;99.90;;;;;;5122962;27;19919;-78
2022/05/21 05:55:08;;;;;;;;;;;13.30;99.90;;;;;;5131110;27;19971;-79
2022/05/21 05:57:33;;;;;;;;;;;13.40;99.90;;;;;;5108669;27;19924;-78
2022/05/21 05:59:59;;;;;;;;;;;13.50;99.90;;;;;;5106865;28;20027;-78
2022/05/21 06:05:12;;;;;;;;;;;13.60;99.90;;;;;;5109703;28;20011;-78
2022/05/21 06:07:48;;;;;;;;;;;13.60;99.90;;;;;;5115352;28;19923;-78
2022/05/21 06:10:15;;;;;;;;;;;13.60;99.90;;;;;;5114883;28;19919;-78
2022/05/21 06:12:40;;;;;;;;;;;13.60;99.90;;;;;;5114949;28;19924;-78
2022/05/21 06:15:06;;;;;;;;;;;13.60;99.90;;;;;;5107879;28;19927;-79
2022/05/21 06:17:32;;;;;;;;;;;13.70;99.90;;;;;;5093817;28;19972;-79
2022/05/21 06:19:58;;;;;;;;;;;13.70;99.90;;;;;;5108696;27;19927;-79
2022/05/21 06:22:24;;;;;;;;;;;13.80;99.90;;;;;;5127951;27;20126;-79
2022/05/21 06:24:51;;;;;;;;;;;13.90;99.90;;;;;;5129215;27;20432;-79
2022/05/21 06:27:16;;;;;;;;;;;14.00;99.90;;;;;;5114272;28;19958;-80
2022/05/21 06:29:42;;;;;;;;;;;14.00;99.90;;;;;;5117264;27;19923;-79
2022/05/21 06:32:08;;;;;;;;;;;14.10;99.90;;;;;;5133938;27;19923;-78
2022/05/21 06:34:37;;;;;;;;;;;14.10;99.90;;;;;;5132288;27;19978;-79
2022/05/21 06:37:06;;;;;;;;;;;14.00;99.90;;;;;;5126512;27;20333;-79
2022/05/21 06:39:32;;;;;;;;;;;14.00;99.90;;;;;;5120154;27;19919;-80
2022/05/21 06:41:58;;;;;;;;;;;14.00;99.90;;;;;;5134968;27;19926;-79
2022/05/21 06:44:24;;;;;;;;;;;14.00;99.90;;;;;;5134403;27;20287;-79
2022/05/21 06:46:50;;;;;;;;;;;14.10;99.90;;;;;;5113348;28;19927;-79
2022/05/21 06:49:17;;;;;;;;;;;14.10;99.90;;;;;;5094377;28;19926;-79
2022/05/21 06:51:43;;;;;;;;;;;14.20;99.90;;;;;;5108528;27;20384;-80
2022/05/21 06:54:09;;;;;;;;;;;14.20;99.90;;;;;;5116431;27;19926;-79
2022/05/21 06:56:34;;;;;;;;;;;14.30;99.90;;;;;;5134956;27;19972;-80
2022/05/21 06:59:00;;;;;;;;;;;14.30;99.90;;;;;;5142698;27;19920;-80
2022/05/21 07:01:26;;;;;;;;;;;14.40;99.90;;;;;;5115954;27;20309;-80
2022/05/21 07:03:51;;;;;;;;;;;14.50;99.90;;;;;;5111372;27;20006;-79
2022/05/21 07:09:01;;;;;;;;;;;14.60;99.90;;;;;;5116775;27;20001;-80
2022/05/21 07:11:27;;;;;;;;;;;14.60;99.90;;;;;;5129904;27;20309;-80
2022/05/21 07:13:52;;;;;;;;;;;14.60;99.90;;;;;;5117489;27;20292;-80
2022/05/21 07:16:18;;;;;;;;;;;14.60;99.90;;;;;;5144834;27;19923;-79
2022/05/21 07:18:43;;;;;;;;;;;14.50;99.90;;;;;;5133358;27;20055;-78
2022/05/21 07:21:12;;;;;;;;;;;14.40;99.90;;;;;;5136191;27;19941;-80
2022/05/21 07:23:38;;;;;;;;;;;14.40;99.90;;;;;;5116957;27;19919;-81
2022/05/21 07:26:04;;;;;;;;;;;14.40;99.90;;;;;;5134838;27;19983;-80
2022/05/21 07:28:29;;;;;;;;;;;14.40;99.90;;;;;;5116097;27;19919;-80
2022/05/21 07:30:55;;;;;;;;;;;14.50;99.90;;;;;;5135087;27;19926;-81
2022/05/21 07:33:21;;;;;;;;;;;14.60;99.90;;;;;;5114366;27;20018;-81
2022/05/21 07:35:47;;;;;;;;;;;14.60;99.90;;;;;;5116485;27;19923;-81
2022/05/21 07:38:13;;;;;;;;;;;14.70;99.90;;;;;;5115739;27;19924;-79
2022/05/21 07:40:40;;;;;;;;;;;14.80;99.90;;;;;;5135073;27;20410;-82
2022/05/21 07:43:09;;;;;;;;;;;14.80;99.90;;;;;;5126795;27;20296;-81
2022/05/21 07:45:39;;;;;;;;;;;14.90;99.90;;;;;;5125159;27;19920;-81
2022/05/21 07:48:05;;;;;;;;;;;14.90;99.90;;;;;;5114348;27;20061;-81
2022/05/21 07:50:31;;;;;;;;;;;15.00;99.90;;;;;;5134033;27;19934;-81
2022/05/21 07:52:57;;;;;;;;;;;15.00;99.90;;;;;;5115901;27;19923;-81
2022/05/21 07:55:22;;;;;;;;;;;15.00;99.90;;;;;;5101347;27;20384;-80
2022/05/21 07:57:48;;;;;;;;;;;15.00;99.90;;;;;;5115491;27;20322;-81
2022/05/21 08:00:17;;;;;;;;;;;15.10;99.90;;;;;;5134310;27;19919;-81
2022/05/21 08:02:44;;;;;;;;;;;15.20;99.90;;;;;;5126951;27;19972;-79
2022/05/21 08:05:10;;;;;;;;;;;15.30;99.90;;;;;;5142060;27;20019;-81
2022/05/21 08:07:36;;;;;;;;;;;15.40;99.90;;;;;;5117732;27;20005;-82
2022/05/21 08:10:02;;;;;;;;;;;15.60;99.90;;;;;;5136648;27;19923;-81
2022/05/21 08:12:27;;;;;;;;;;;15.60;99.90;;;;;;5135903;27;20418;-82
2022/05/21 08:14:53;;;;;;;;;;;15.60;99.90;;;;;;5145720;27;19919;-81
2022/05/21 08:17:19;;;;;;;;;;;15.60;99.90;;;;;;5125625;27;20356;-80
2022/05/21 08:19:44;;;;;;;;;;;15.50;99.90;;;;;;5121812;27;19994;-81
2022/05/21 08:27:39;;;;;;;;;;;15.40;99.90;;;;;;5123827;27;20242;-81
2022/05/21 08:30:05;;;;;;;;;;;15.30;99.90;;;;;;5141074;27;19919;-79
2022/05/21 08:32:30;;;;;;;;;;;15.10;99.90;;;;;;5109342;27;19926;-78
2022/05/21 08:34:58;;;;;;;;;;;15.00;99.90;;;;;;5130059;27;19919;-77
2022/05/21 08:37:24;;;;;;;;;;;14.70;99.90;;;;;;5130967;27;19966;-77
2022/05/21 08:39:49;;;;;;;;;;;14.50;99.90;;;;;;5111222;27;19965;-77
2022/05/21 08:42:42;;;;;;;;;;;14.40;99.90;;;;;;5131774;27;20395;-77
2022/05/21 08:45:15;;;;;;;;;;;14.30;99.90;;;;;;5109020;27;19926;-78
2022/05/21 08:47:41;;;;;;;;;;;14.40;99.90;;;;;;5131359;27;19927;-78
2022/05/21 08:50:13;;;;;;;;;;;14.70;99.90;;;;;;5112132;27;19930;-78
2022/05/21 08:52:44;;;;;;;;;;;14.90;99.90;;;;;;5113884;27;19968;-78
2022/05/21 08:55:11;;;;;;;;;;;15.10;99.90;;;;;;5114869;27;19923;-78
2022/05/21 08:57:54;;;;;;;;;;;15.30;99.90;;;;;;5132427;27;20375;-78
2022/05/21 09:00:33;;;;;;;;;;;15.30;99.90;;;;;;5135712;27;19935;-78
2022/05/21 09:02:59;;;;;;;;;;;15.20;99.90;;;;;;5151999;27;20321;-78
2022/05/21 09:05:25;;;;;;;;;;;15.20;99.90;;;;;;5129200;27;19923;-79
2022/05/21 09:07:58;;;;;;;;;;;15.20;99.90;;;;;;5114523;27;19935;-79
2022/05/21 09:10:33;;;;;;;;;;;15.30;99.90;;;;;;5116170;27;19920;-83
2022/05/21 09:13:05;;;;;;;;;;;15.30;99.90;;;;;;5115196;27;19919;-74
2022/05/21 09:18:15;;;;;;;;;;;15.40;99.90;;;;;;5131741;27;19922;-74
2022/05/21 09:20:47;;;;;;;;;;;15.40;99.90;;;;;;5152998;27;19930;-74
2022/05/21 09:23:12;;;;;;;;;;;15.40;99.90;;;;;;5153367;27;19923;-74
2022/05/21 09:25:38;;;;;;;;;;;15.50;99.90;;;;;;5152847;27;19926;-74
2022/05/21 09:28:05;;;;;;;;;;;15.50;99.90;;;;;;5133390;27;19923;-75
2022/05/21 09:30:33;;;;;;;;;;;15.70;99.90;;;;;;5132107;27;20347;-73
2022/05/21 09:33:00;;;;;;;;;;;15.80;99.90;;;;;;5128572;27;19919;-74
2022/05/21 09:35:31;;;;;;;;;;;16.10;99.90;;;;;;5152316;27;20356;-75
2022/05/21 09:38:13;;;;;;;;;;;16.20;99.90;;;;;;5134638;27;19920;-73
2022/05/21 09:40:39;;;;;;;;;;;16.10;99.90;;;;;;5112528;28;19920;-74
2022/05/21 09:46:15;;;;;;;;;;;16.10;99.90;;;;;;5143874;27;20417;-77
2022/05/21 09:48:41;;;;;;;;;;;16.30;99.90;;;;;;5135551;27;19931;-81
2022/05/21 09:51:19;;;;;;;;;;;16.50;99.90;;;;;;5133882;27;19920;-79
2022/05/21 09:53:45;;;;;;;;;;;16.60;99.90;;;;;;5134207;27;19923;-77
2022/05/21 09:56:27;;;;;;;;;;;16.50;99.90;;;;;;5132505;27;19933;-78
2022/05/21 09:59:09;;;;;;;;;;;16.40;99.90;;;;;;5113576;27;19927;-77
2022/05/21 10:01:40;;;;;;;;;;;16.40;99.90;;;;;;5092969;28;19924;-78
2022/05/21 10:04:11;;;;;;;;;;;16.50;99.90;;;;;;5091523;28;20337;-78
2022/05/21 10:06:40;;;;;;;;;;;16.50;99.90;;;;;;5107128;27;19975;-76
2022/05/21 10:12:39;;;;;;;2.75;1.30;;;15.60;99.90;;;;;;5159546;27;20695;-59
2022/05/21 10:15:21;;;;;;;5.18;1.25;;;16.70;99.90;;;;;;5148346;27;20507;-59
2022/05/21 10:17:54;;;;;;;3.22;1.05;;;17.10;99.90;;;;;;5141187;27;20053;-59
2022/05/21 10:20:26;;;;;;;5.07;0.98;;;17.50;99.90;;;;;;5124497;27;20412;-59
2022/05/21 10:23:16;;;;;;;1.67;0.73;;;17.90;99.90;;;;;;5149075;27;20100;-59
2022/05/21 10:26:02;;;;;;;2.25;0.80;;;18.30;99.90;;;;;;5149126;27;20050;-59
2022/05/21 10:28:54;;;;;;;2.90;1.10;;;18.60;99.90;;;;;;5122371;28;20054;-59
2022/05/21 10:31:39;;;;;;;1.88;0.73;;;18.90;99.90;;;;;;5137573;27;20038;-59
2022/05/21 10:34:13;;;;;;;1.90;0.93;;;19.20;99.90;;;;;;5135392;27;20097;-59
2022/05/21 10:36:58;;;;;;;5.03;1.10;;;19.30;99.90;;;;;;5137201;27;20047;-59
2022/05/21 10:39:42;;;;;;;0.85;0.50;;;19.50;99.90;;;;;;5138644;27;20046;-59
2022/05/21 10:42:38;;;;;;;0.88;0.77;;;19.70;99.90;;;;;;5133275;27;20047;-59
2022/05/21 10:45:19;;;;;;;1.85;0.80;;;19.90;99.90;;;;;;5140619;27;20113;-59
2022/05/21 10:48:03;;;;;;;2.40;0.82;;;19.90;99.90;;;;;;5133616;27;20118;-60
2022/05/21 10:50:33;;;;;;;0.98;0.70;;;20.10;99.90;;;;;;5135406;27;20068;-59
2022/05/21 10:53:20;;;;;;;2.22;0.82;;;20.20;99.90;;;;;;5116395;27;20099;-60
2022/05/21 10:56:04;;;;;;;0.70;0.60;;;20.30;99.90;;;;;;5135127;27;20065;-59
2022/05/21 10:58:48;;;;;;;1.50;0.80;;;20.40;99.90;;;;;;5135550;27;20178;-59
2022/05/21 11:01:45;;;;;;;1.65;1.05;;;20.40;99.90;;;;;;5135633;27;20046;-59
2022/05/21 11:04:40;;;;;;;1.27;0.70;;;20.50;99.90;;;;;;5136461;27;20118;-59
2022/05/21 11:07:27;;;;;;;2.55;0.60;;;20.50;99.90;;;;;;5138360;27;20041;-59
2022/05/21 11:10:05;;;;;;;1.08;0.77;;;20.60;99.90;;;;;;5136564;27;20047;-59
2022/05/21 11:12:47;;;;;;;1.65;0.63;;;20.60;99.90;;;;;;5137187;27;20055;-59
2022/05/21 11:15:32;;;;;;;0.47;0.40;;;20.60;99.90;;;;;;5137255;27;20052;-59
2022/05/21 11:18:13;;;;;;;1.83;0.68;;;20.70;99.90;;;;;;5132621;27;20043;-59
2022/05/21 11:20:46;;;;;;;1.55;0.68;;;20.70;99.90;;;;;;5134544;27;20073;-59
2022/05/21 11:23:15;;;;;;;2.05;0.80;;;20.70;99.90;;;;;;5128310;27;20078;-59
2022/05/21 11:25:46;;;;;;;1.88;0.47;;;20.80;99.90;;;;;;5122394;27;20043;-59
2022/05/21 11:28:30;;;;;;;1.05;0.60;;;20.80;99.90;;;;;;5102772;27;20048;-59
2022/05/21 11:31:15;;;;;;;1.35;0.70;;;20.80;99.90;;;;;;5119018;27;20562;-60
2022/05/21 11:39:18;;;;;;;0.95;0.60;;;20.80;99.90;;;;;;5113920;27;20050;-59
2022/05/21 11:42:02;;;;;;;0.85;0.50;;;20.90;99.90;;;;;;5129818;27;20078;-59
2022/05/21 11:44:55;;;;;;;0.90;0.65;;;20.90;99.90;;;;;;5110840;28;20426;-59
2022/05/21 11:47:21;;;;;;;2.45;0.70;;;20.90;99.90;;;;;;5133700;27;20047;-59
2022/05/21 11:49:51;;;;;;;;;;;20.90;99.90;;;;;;5132401;27;20117;-59
2022/05/21 11:52:32;;;;;;;2.97;0.70;;;20.90;99.90;;;;;;5119108;27;19927;-59
2022/05/21 11:54:57;;;;;;;0.98;0.60;;;20.90;99.90;;;;;;5113065;28;20109;-59
2022/05/21 11:57:41;;;;;;;;;;;20.90;99.90;;;;;;5119233;27;20472;-59
2022/05/21 12:00:25;;;;;;;2.42;0.60;;;20.90;99.90;;;;;;5101857;27;19920;-59
2022/05/21 12:02:53;;;;;;;1.73;0.50;;;20.90;99.90;;;;;;5112721;27;20112;-60
2022/05/21 12:05:41;;;;;;;1.65;0.55;;;20.90;99.90;;;;;;5112492;28;20055;-59
2022/05/21 12:08:16;;;;;;;0.45;0.45;;;20.90;99.90;;;;;;5129856;27;20776;-59
2022/05/21 12:11:04;;;;;;;0.40;0.40;;;21.00;99.90;;;;;;5133168;27;20529;-59
2022/05/21 12:13:33;;;;;;;0.75;0.50;;;21.00;99.90;;;;;;5133394;27;20051;-57
2022/05/21 12:16:19;;;;;;;1.92;0.65;;;20.90;99.90;;;;;;5133190;27;20047;-57
2022/05/21 12:18:55;;;;;;;3.80;0.90;;;21.00;99.90;;;;;;5112722;27;20072;-57
2022/05/21 12:23:59;;;;;;;2.08;0.70;;;20.90;99.90;;;;;;5132922;27;20168;-57
2022/05/21 12:26:47;;;;;;;2.35;0.90;;;20.90;99.90;;;;;;5133353;27;20047;-57
2022/05/21 12:29:27;;;;;;;2.30;0.50;;;20.90;99.90;;;;;;5131151;27;20046;-57
2022/05/21 12:31:59;;;;;;;1.50;0.63;;;20.90;99.90;;;;;;5114560;27;20078;-57
2022/05/21 12:34:48;;;;;;;2.63;0.80;;;20.90;99.90;;;;;;5112409;27;20051;-57
2022/05/21 12:37:39;;;;;;;1.08;0.70;;;20.90;99.90;;;;;;5133173;27;20047;-57
2022/05/21 12:40:29;;;;;;;1.25;0.50;;;20.90;99.90;;;;;;5132902;27;20051;-57
2022/05/21 12:43:05;;;;;;;1.92;0.70;;;20.90;99.90;;;;;;5132130;27;20051;-57
2022/05/21 12:45:48;;;;;;;1.85;0.63;;;20.90;99.90;;;;;;5133274;27;20061;-57
2022/05/21 12:48:20;;;;;;;0.50;0.43;;;20.90;99.90;;;;;;5129676;27;20487;-57
2022/05/21 12:50:53;;;;;;;1.00;0.60;;;20.90;99.90;;;;;;5132508;27;20043;-60
2022/05/21 12:53:24;;;;;;;0.73;0.50;;;20.90;99.90;;;;;;5132730;27;20047;-57
2022/05/21 12:56:00;;;;;;;1.65;0.70;;;20.90;99.90;;;;;;5132561;27;20047;-57
2022/05/21 12:58:26;;;;;;;1.90;0.68;;;20.90;99.90;;;;;;5132554;27;20047;-57
2022/05/21 13:00:53;;;;;;;1.50;0.70;;;20.90;99.90;;;;;;5132324;27;20051;-57
2022/05/21 13:03:21;;;;;;;1.42;0.57;;;20.90;99.90;;;;;;5130857;27;20086;-56
2022/05/21 13:06:00;;;;;;;2.15;0.60;;;20.90;99.90;;;;;;5132210;27;20050;-58
2022/05/21 13:08:28;;;;;;;1.42;0.68;;;20.90;99.90;;;;;;5132846;27;20100;-57
2022/05/21 13:11:16;;;;;;;1.15;0.60;;;20.90;99.90;;;;;;5131588;27;20055;-57
2022/05/21 13:13:43;;;;;;;1.38;0.60;;;20.90;99.90;;;;;;5129634;27;20371;-57
2022/05/21 13:16:19;;;;;;;1.80;0.60;;;21.00;99.90;;;;;;5131969;27;20503;-57
2022/05/21 13:19:09;;;;;;;0.50;0.50;;;20.90;99.90;;;;;;5130744;27;20047;-59
2022/05/21 13:21:46;;;;;;;1.25;0.60;;;21.00;99.90;;;;;;5132383;27;20067;-57
2022/05/21 13:24:36;;;;;;;1.65;0.65;;;21.00;99.90;;;;;;5132245;27;20043;-57
2022/05/21 13:27:08;;;;;;;1.75;0.70;;;21.00;99.90;;;;;;5131760;27;20058;-57
2022/05/21 13:29:35;;;;;;;0.50;0.50;;;21.00;99.90;;;;;;5118881;27;20066;-57
2022/05/21 13:32:31;;;;;;;1.50;0.60;;;20.90;99.90;;;;;;5114337;27;20475;-58
2022/05/21 13:35:04;;;;;;;1.80;0.80;;;20.90;99.90;;;;;;5122479;27;20121;-57
2022/05/21 13:37:44;;;;;;;4.15;0.88;;;20.90;99.90;;;;;;5112516;27;20414;-57
2022/05/21 13:40:17;;;;;;;1.48;0.50;;;20.90;99.90;;;;;;5123978;27;20055;-57
2022/05/21 13:42:46;;;;;;;4.22;0.70;;;20.90;99.90;;;;;;5108889;27;20043;-57
2022/05/21 13:45:25;;;;;;;0.77;0.50;;;20.90;99.90;;;;;;5126637;27;20624;-58
2022/05/21 13:48:04;;;;;;;1.60;0.47;;;20.90;99.90;;;;;;5119922;27;20474;-57
2022/05/21 13:50:31;;;;;;;0.95;0.68;;;20.90;99.90;;;;;;5124305;27;20051;-57
2022/05/21 13:52:58;;;;;;;1.73;0.50;;;20.90;99.90;;;;;;5127411;27;20050;-57
2022/05/21 13:55:25;;;;;;;0.50;0.50;;;20.90;99.90;;;;;;5131077;27;20035;-57
2022/05/21 13:57:51;;;;;;;1.77;0.63;;;20.90;99.90;;;;;;5106122;28;20051;-57
2022/05/21 14:00:20;;;;;;;0.32;0.32;;;20.90;99.90;;;;;;5125104;27;20048;-57
2022/05/21 14:02:50;;;;;;;1.45;0.57;;;21.00;99.90;;;;;;5123656;27;20149;-59
2022/05/21 14:05:25;;;;;;;0.50;0.50;;;21.00;99.90;;;;;;5125417;27;20047;-57
2022/05/21 14:08:09;;;;;;;2.38;0.52;;;21.00;99.90;;;;;;5128135;27;20035;-57
2022/05/21 14:10:41;;;;;;;2.97;0.60;;;21.00;99.90;;;;;;5131041;28;20050;-57
2022/05/21 14:13:29;;;;;;;0.73;0.52;;;21.00;99.90;;;;;;5130955;28;20080;-57
2022/05/21 14:15:56;;;;;;;0.98;0.38;;;21.00;99.90;;;;;;5130851;28;20051;-57
2022/05/21 14:18:35;;;;;;;0.90;0.70;;;21.00;99.90;;;;;;5129318;28;20047;-57
2022/05/21 14:21:17;;;;;;;0.57;0.40;;;21.00;99.90;;;;;;5112049;28;20054;-57
2022/05/21 14:23:43;;;;;;;1.05;0.52;;;21.00;99.90;;;;;;5131265;28;20396;-57
2022/05/21 14:26:19;;;;;;;;;;;21.00;99.90;;;;;;5124637;28;20047;-57
2022/05/21 14:28:46;;;;;;;0.52;0.40;;;21.00;99.90;;;;;;5109380;28;19919;-57
2022/05/21 14:31:26;;;;;;;0.52;0.52;;;21.00;99.90;;;;;;5108102;28;20142;-57
2022/05/21 14:34:12;;;;;;;0.47;0.47;;;21.00;99.90;;;;;;5126217;28;20100;-58
2022/05/21 14:36:44;;;;;;;0.57;0.43;;;21.00;99.90;;;;;;5113334;28;20054;-57
2022/05/21 14:39:10;;;;;;;1.02;0.57;;;21.00;99.90;;;;;;5130645;28;20047;-57
2022/05/21 14:41:39;;;;;;;0.82;0.60;;;21.00;99.90;;;;;;5130542;28;20046;-57
2022/05/21 14:44:13;;;;;;;0.85;0.47;;;21.00;99.90;;;;;;5129684;28;20188;-57